Time;durP1;ratioP1;P1;durP2;ratioP2;P2;SDS_P1;SDS_P2;PMS_P1;PMS_P2;Temp;Humidity;BMP_temperature;BMP_pressure;BME280_temperature;BME280_humidity;BME280_pressure;Samples;Min_cycle;Max_cycle;Signal;HPM_P1;HPM_P2
2021/07/03 00:00:51;;;;;;;27.37;5.13;;;24.30;91.40;;;;;;5066163;28;20202;-75
2021/07/03 00:03:18;;;;;;;23.40;5.73;;;24.30;91.20;;;;;;5085687;28;20985;-77
2021/07/03 00:05:44;;;;;;;27.33;5.90;;;24.20;91.00;;;;;;5063739;28;20210;-77
2021/07/03 00:08:10;;;;;;;23.37;5.63;;;24.10;91.00;;;;;;5060364;28;20214;-76
2021/07/03 00:10:37;;;;;;;30.70;5.53;;;24.10;90.90;;;;;;5092146;28;20331;-78
2021/07/03 00:13:03;;;;;;;23.77;4.83;;;23.80;90.80;;;;;;5088375;28;20201;-75
2021/07/03 00:15:30;;;;;;;17.73;4.80;;;24.00;91.10;;;;;;5071253;28;20185;-79
2021/07/03 00:17:57;;;;;;;25.53;5.33;;;24.00;90.90;;;;;;5105365;27;20177;-75
2021/07/03 00:20:25;;;;;;;26.80;5.77;;;24.10;90.80;;;;;;5098006;27;20214;-77
2021/07/03 00:22:53;;;;;;;19.27;4.70;;;24.00;90.70;;;;;;5081464;28;20634;-77
2021/07/03 00:25:20;;;;;;;24.77;5.23;;;24.00;90.80;;;;;;5081640;28;20235;-76
2021/07/03 00:27:47;;;;;;;23.83;4.83;;;24.00;90.70;;;;;;5087398;28;20189;-76
2021/07/03 00:30:14;;;;;;;23.47;4.87;;;23.90;90.70;;;;;;5090144;28;20553;-75
2021/07/03 00:32:40;;;;;;;22.83;4.47;;;23.90;90.70;;;;;;5087233;28;20212;-76
2021/07/03 00:35:08;;;;;;;18.57;4.53;;;23.90;90.50;;;;;;5092453;28;20206;-75
2021/07/03 00:37:35;;;;;;;26.80;5.27;;;23.80;90.20;;;;;;5080359;28;20646;-74
2021/07/03 00:40:01;;;;;;;22.13;4.10;;;23.70;90.10;;;;;;5079279;28;20229;-76
2021/07/03 00:42:27;;;;;;;21.67;4.77;;;23.70;90.00;;;;;;5104798;27;21474;-77
2021/07/03 00:44:54;;;;;;;16.93;4.60;;;23.80;89.80;;;;;;5075560;28;20185;-74
2021/07/03 00:47:20;;;;;;;16.67;4.00;;;23.70;89.10;;;;;;5068880;28;20190;-76
2021/07/03 00:49:46;;;;;;;12.67;3.60;;;23.60;87.80;;;;;;5090292;28;20221;-74
2021/07/03 00:52:14;;;;;;;21.87;4.27;;;23.60;87.20;;;;;;5102827;27;20222;-77
2021/07/03 00:54:44;;;;;;;20.23;3.20;;;23.60;86.40;;;;;;5086262;28;20216;-76
2021/07/03 00:57:11;;;;;;;13.93;3.13;;;23.60;82.90;;;;;;5082079;28;20256;-76
2021/07/03 00:59:41;;;;;;;13.17;3.03;;;23.60;82.60;;;;;;5067713;28;20198;-76
2021/07/03 01:02:10;;;;;;;8.50;2.70;;;23.60;82.40;;;;;;5103040;27;20189;-76
2021/07/03 01:04:38;;;;;;;12.13;2.90;;;23.60;80.60;;;;;;5070494;28;20189;-78
2021/07/03 01:07:06;;;;;;;12.33;3.00;;;23.60;80.30;;;;;;5106307;27;20215;-76
2021/07/03 01:09:34;;;;;;;9.83;2.83;;;23.60;79.60;;;;;;5077467;28;20194;-76
2021/07/03 01:12:01;;;;;;;10.80;2.73;;;23.60;79.40;;;;;;5087957;28;20202;-76
2021/07/03 01:14:27;;;;;;;10.47;3.17;;;23.50;79.40;;;;;;5105104;27;20683;-77
2021/07/03 01:16:54;;;;;;;9.43;2.50;;;23.50;79.30;;;;;;5091638;28;20182;-79
2021/07/03 01:19:21;;;;;;;13.23;3.27;;;23.50;78.60;;;;;;5105370;27;20222;-76
2021/07/03 01:21:56;;;;;;;16.33;3.53;;;23.40;78.50;;;;;;5090879;28;20193;-76
2021/07/03 01:24:24;;;;;;;13.40;2.80;;;23.40;78.60;;;;;;5086589;28;20537;-77
2021/07/03 01:26:55;;;;;;;14.20;2.87;;;23.40;78.80;;;;;;5087027;28;20816;-77
2021/07/03 01:29:25;;;;;;;13.33;2.93;;;23.40;78.10;;;;;;5068241;28;20179;-78
2021/07/03 01:31:56;;;;;;;11.83;2.37;;;23.30;77.40;;;;;;5099098;27;20323;-77
2021/07/03 01:34:27;;;;;;;16.30;2.80;;;23.30;77.30;;;;;;5086636;28;20213;-76
2021/07/03 01:36:54;;;;;;;16.03;2.50;;;23.20;76.90;;;;;;5091251;28;20190;-78
2021/07/03 01:39:23;;;;;;;6.27;1.93;;;23.20;76.30;;;;;;5083493;28;20257;-78
2021/07/03 01:41:51;;;;;;;8.67;2.27;;;23.20;76.40;;;;;;5099813;27;20191;-80
2021/07/03 01:44:27;;;;;;;8.23;2.33;;;23.20;76.80;;;;;;5103728;27;20185;-78
2021/07/03 01:46:59;;;;;;;7.30;2.50;;;23.20;76.20;;;;;;5106137;27;20272;-78
2021/07/03 01:49:39;;;;;;;13.63;2.50;;;23.10;76.00;;;;;;5105878;27;20604;-77
2021/07/03 01:52:06;;;;;;;9.23;2.07;;;23.10;75.40;;;;;;5071791;28;20212;-76
2021/07/03 01:54:32;;;;;;;7.90;2.43;;;23.10;75.60;;;;;;5072657;28;20244;-78
2021/07/03 01:56:59;;;;;;;9.53;2.80;;;23.10;75.80;;;;;;5104003;27;20185;-79
2021/07/03 01:59:31;;;;;;;7.83;2.33;;;23.10;75.60;;;;;;5086479;28;20232;-77
2021/07/03 02:02:01;;;;;;;16.17;3.13;;;23.00;75.30;;;;;;5090243;28;20212;-77
2021/07/03 02:04:28;;;;;;;12.23;2.67;;;23.00;75.60;;;;;;5100213;27;20181;-77
2021/07/03 02:06:55;;;;;;;16.30;2.57;;;23.00;75.80;;;;;;5104496;27;20182;-77
2021/07/03 02:09:23;;;;;;;13.93;2.87;;;23.00;75.70;;;;;;5084473;28;20189;-74
2021/07/03 02:11:49;;;;;;;8.57;2.67;;;23.10;75.60;;;;;;5080185;28;20213;-78
2021/07/03 02:14:16;;;;;;;9.40;2.50;;;23.00;75.40;;;;;;5105988;27;20201;-78
2021/07/03 02:16:42;;;;;;;8.83;2.67;;;22.90;74.80;;;;;;5071495;28;20181;-79
2021/07/03 02:19:10;;;;;;;13.90;2.37;;;22.90;75.30;;;;;;5085188;28;20260;-76
2021/07/03 02:21:37;;;;;;;13.33;2.27;;;22.80;75.10;;;;;;5104160;27;20289;-76
2021/07/03 02:24:04;;;;;;;9.70;2.30;;;22.80;75.70;;;;;;5086659;28;20195;-78
2021/07/03 02:26:31;;;;;;;14.07;2.40;;;22.80;75.50;;;;;;5102031;28;20297;-78
2021/07/03 02:28:57;;;;;;;6.97;2.23;;;22.70;75.10;;;;;;5101525;28;20221;-78
2021/07/03 02:31:24;;;;;;;11.23;2.60;;;22.70;75.50;;;;;;5082819;28;20197;-77
2021/07/03 02:33:50;;;;;;;9.27;2.23;;;22.60;75.90;;;;;;5068844;28;20186;-78
2021/07/03 02:36:16;;;;;;;12.77;2.60;;;22.60;75.90;;;;;;5070472;28;20202;-80
2021/07/03 02:38:43;;;;;;;16.93;2.80;;;22.50;76.10;;;;;;5102696;28;20193;-78
2021/07/03 02:41:09;;;;;;;12.57;2.60;;;22.50;76.50;;;;;;5065709;28;20237;-75
2021/07/03 02:43:37;;;;;;;14.37;2.63;;;22.50;76.90;;;;;;5078187;28;20186;-79
2021/07/03 02:46:03;;;;;;;9.57;2.77;;;22.50;77.80;;;;;;5099355;28;20268;-74
2021/07/03 02:48:29;;;;;;;15.17;2.53;;;22.40;78.70;;;;;;5082784;28;20217;-78
2021/07/03 02:50:56;;;;;;;6.00;2.10;;;22.50;79.60;;;;;;5099440;28;20174;-78
2021/07/03 02:53:22;;;;;;;12.43;2.67;;;22.50;79.20;;;;;;5069686;28;20301;-78
2021/07/03 02:55:48;;;;;;;10.63;2.73;;;22.50;79.80;;;;;;5098282;28;20190;-75
2021/07/03 02:58:14;;;;;;;7.80;2.20;;;22.60;80.30;;;;;;5099918;28;20697;-78
2021/07/03 03:00:41;;;;;;;8.30;2.30;;;22.60;80.80;;;;;;5102502;28;20234;-78
2021/07/03 03:03:07;;;;;;;11.20;2.17;;;22.60;81.20;;;;;;5086683;28;20205;-77
2021/07/03 03:05:33;;;;;;;5.97;2.23;;;22.70;80.20;;;;;;5073007;28;20185;-75
2021/07/03 03:07:59;;;;;;;12.60;2.80;;;22.70;80.30;;;;;;5087116;28;20181;-78
2021/07/03 03:10:26;;;;;;;10.67;2.40;;;22.80;79.80;;;;;;5088244;28;20186;-77
2021/07/03 03:12:52;;;;;;;10.43;2.83;;;22.90;80.60;;;;;;5094906;28;20744;-78
2021/07/03 03:15:19;;;;;;;9.10;2.30;;;23.00;79.60;;;;;;5103041;28;20170;-78
2021/07/03 03:17:45;;;;;;;10.00;2.40;;;23.00;79.70;;;;;;5075612;28;20219;-77
2021/07/03 03:20:13;;;;;;;8.97;2.10;;;23.00;79.20;;;;;;5092071;28;20649;-77
2021/07/03 03:22:42;;;;;;;7.90;2.60;;;23.00;79.00;;;;;;5073329;28;20187;-77
2021/07/03 03:25:09;;;;;;;8.60;2.33;;;23.00;78.90;;;;;;5077416;28;20179;-75
2021/07/03 03:27:37;;;;;;;9.63;2.37;;;23.10;79.10;;;;;;5076518;28;20287;-75
2021/07/03 03:30:06;;;;;;;8.87;2.57;;;23.10;78.60;;;;;;5094766;28;20654;-73
2021/07/03 03:32:33;;;;;;;8.33;2.27;;;22.90;77.60;;;;;;5089251;28;20953;-76
2021/07/03 03:34:59;;;;;;;15.27;1.90;;;23.00;78.50;;;;;;5085942;28;20619;-75
2021/07/03 03:37:25;;;;;;;9.13;2.40;;;22.90;78.20;;;;;;5088792;28;20186;-76
2021/07/03 03:39:52;;;;;;;11.80;2.20;;;22.90;78.20;;;;;;5068322;28;20199;-76
2021/07/03 03:42:18;;;;;;;9.10;2.27;;;22.90;78.20;;;;;;5068802;28;20191;-77
2021/07/03 03:44:44;;;;;;;8.67;2.17;;;22.90;78.00;;;;;;5086500;28;20490;-76
2021/07/03 03:47:11;;;;;;;5.60;1.90;;;22.80;77.60;;;;;;5106380;27;20193;-76
2021/07/03 03:49:38;;;;;;;9.57;2.33;;;22.80;77.60;;;;;;5071426;28;20219;-74
2021/07/03 03:52:04;;;;;;;10.93;2.23;;;22.80;78.20;;;;;;5106249;27;20277;-76
2021/07/03 03:54:30;;;;;;;6.77;2.57;;;22.70;78.50;;;;;;5103411;27;20609;-75
2021/07/03 03:59:42;;;;;;;11.20;2.50;;;22.70;79.10;;;;;;5105233;27;20185;-74
2021/07/03 04:02:08;;;;;;;14.07;2.60;;;22.70;80.80;;;;;;5074311;28;20269;-76
2021/07/03 04:04:34;;;;;;;9.50;2.40;;;22.80;81.30;;;;;;5073876;28;20204;-78
2021/07/03 04:07:01;;;;;;;13.47;2.13;;;22.70;81.90;;;;;;5104210;27;20191;-78
2021/07/03 04:09:27;;;;;;;16.07;2.87;;;22.80;83.60;;;;;;5087181;28;20547;-78
2021/07/03 04:11:55;;;;;;;10.93;2.90;;;22.90;85.50;;;;;;5104261;27;20213;-75
2021/07/03 04:14:22;;;;;;;13.67;2.30;;;22.90;84.80;;;;;;5079956;28;20189;-74
2021/07/03 04:16:48;;;;;;;6.83;2.97;;;23.00;84.40;;;;;;5087143;28;20266;-75
2021/07/03 04:19:15;;;;;;;14.10;2.87;;;23.10;84.10;;;;;;5090328;28;20863;-76
2021/07/03 04:21:41;;;;;;;8.47;2.40;;;23.20;84.30;;;;;;5102776;27;20194;-77
2021/07/03 04:24:07;;;;;;;10.13;2.50;;;23.30;84.00;;;;;;5070598;28;20220;-75
2021/07/03 04:26:35;;;;;;;10.03;2.23;;;23.40;83.90;;;;;;5087613;28;20182;-77
2021/07/03 04:29:01;;;;;;;6.17;2.17;;;23.50;84.10;;;;;;5098570;27;20273;-76
2021/07/03 04:31:28;;;;;;;9.43;2.20;;;23.60;84.10;;;;;;5069959;28;20339;-78
2021/07/03 04:33:54;;;;;;;10.60;2.30;;;23.60;84.10;;;;;;5065630;28;20189;-76
2021/07/03 04:36:20;;;;;;;9.73;2.60;;;23.70;83.60;;;;;;5069293;28;20183;-76
2021/07/03 04:38:46;;;;;;;6.13;2.50;;;23.70;83.60;;;;;;5096385;27;20186;-74
2021/07/03 04:41:13;;;;;;;11.33;2.40;;;23.80;83.70;;;;;;5070988;28;20630;-74
2021/07/03 04:43:39;;;;;;;9.30;2.17;;;23.90;85.20;;;;;;5080144;28;20174;-76
2021/07/03 04:46:05;;;;;;;10.43;2.60;;;24.00;84.00;;;;;;5093442;28;20186;-75
2021/07/03 04:48:31;;;;;;;8.50;2.60;;;24.00;84.30;;;;;;5101877;27;20193;-77
2021/07/03 04:50:58;;;;;;;6.07;2.13;;;24.10;84.80;;;;;;5102890;27;20612;-74
2021/07/03 04:53:24;;;;;;;8.80;2.60;;;24.10;85.10;;;;;;5066557;28;20214;-78
2021/07/03 04:55:50;;;;;;;4.47;2.17;;;24.10;84.60;;;;;;5088748;28;20182;-74
2021/07/03 04:58:17;;;;;;;8.87;2.30;;;24.20;83.90;;;;;;5087922;28;20186;-75
2021/07/03 05:00:44;;;;;;;5.20;1.97;;;24.30;80.80;;;;;;5082122;28;20190;-74
2021/07/03 05:03:10;;;;;;;6.68;1.80;;;24.30;83.40;;;;;;5087806;28;20253;-75
2021/07/03 05:05:37;;;;;;;5.00;1.93;;;24.40;83.30;;;;;;5085811;28;20182;-74
2021/07/03 05:08:03;;;;;;;8.67;2.10;;;24.50;81.90;;;;;;5084564;28;20300;-75
2021/07/03 05:10:30;;;;;;;8.90;2.60;;;24.50;83.10;;;;;;5087506;28;20186;-74
2021/07/03 05:12:56;;;;;;;9.02;2.67;;;24.70;81.80;;;;;;5100989;27;20623;-76
2021/07/03 05:15:23;;;;;;;5.32;2.17;;;24.60;82.50;;;;;;5084926;28;20822;-74
2021/07/03 05:17:49;;;;;;;7.40;2.20;;;24.60;82.40;;;;;;5095639;27;20211;-75
2021/07/03 05:20:17;;;;;;;8.75;2.40;;;24.80;83.00;;;;;;5084897;28;20246;-74
2021/07/03 05:22:44;;;;;;;9.15;2.30;;;25.00;80.70;;;;;;5100023;27;20285;-74
2021/07/03 05:25:12;;;;;;;7.97;2.37;;;25.00;81.50;;;;;;5083778;28;20260;-75
2021/07/03 05:27:39;;;;;;;5.00;2.10;;;25.00;82.50;;;;;;5070724;28;20190;-73
2021/07/03 05:30:07;;;;;;;10.32;2.25;;;25.10;82.10;;;;;;5081726;28;21148;-75
2021/07/03 05:32:33;;;;;;;7.22;2.30;;;25.30;80.50;;;;;;5065982;28;20285;-75
2021/07/03 05:34:59;;;;;;;7.65;2.10;;;25.30;81.10;;;;;;5085104;28;20190;-74
2021/07/03 05:37:25;;;;;;;9.85;2.63;;;25.30;79.70;;;;;;5085430;28;20182;-77
2021/07/03 05:39:52;;;;;;;6.82;2.20;;;25.50;76.30;;;;;;5082118;28;20171;-77
2021/07/03 05:42:18;;;;;;;8.88;2.25;;;25.40;78.20;;;;;;5083082;28;20194;-74
2021/07/03 05:44:44;;;;;;;7.45;2.22;;;25.50;79.70;;;;;;5099689;27;20190;-75
2021/07/03 05:47:11;;;;;;;5.93;2.08;;;25.40;80.80;;;;;;5090424;28;20879;-74
2021/07/03 05:49:39;;;;;;;10.80;2.40;;;25.40;79.40;;;;;;5082686;28;20251;-74
2021/07/03 05:52:07;;;;;;;5.85;2.33;;;25.80;76.90;;;;;;5098644;28;20206;-74
2021/07/03 05:54:33;;;;;;;9.88;2.50;;;26.00;76.50;;;;;;5074425;28;20178;-76
2021/07/03 05:57:00;;;;;;;8.35;2.40;;;26.10;77.30;;;;;;5069655;28;20178;-76
2021/07/03 05:59:26;;;;;;;10.68;2.10;;;26.50;76.40;;;;;;5084361;28;20281;-75
2021/07/03 06:01:52;;;;;;;7.18;2.40;;;26.60;76.20;;;;;;5082669;28;20186;-76
2021/07/03 06:04:19;;;;;;;6.60;2.65;;;26.50;77.50;;;;;;5084398;28;20535;-76
2021/07/03 06:06:45;;;;;;;8.38;2.10;;;26.50;77.50;;;;;;5088357;28;20711;-77
2021/07/03 06:09:11;;;;;;;9.07;2.50;;;26.30;79.20;;;;;;5100605;28;20251;-77
2021/07/03 06:11:37;;;;;;;11.82;2.40;;;26.20;79.50;;;;;;5080775;28;20214;-77
2021/07/03 06:14:04;;;;;;;10.45;2.60;;;26.60;78.00;;;;;;5080543;28;20194;-73
2021/07/03 06:16:30;;;;;;;6.20;2.05;;;26.60;78.50;;;;;;5083608;28;20174;-76
2021/07/03 06:18:56;;;;;;;10.68;2.38;;;26.60;79.40;;;;;;5077641;28;20190;-74
2021/07/03 06:21:23;;;;;;;7.40;2.30;;;26.50;79.80;;;;;;5099530;28;20229;-78
2021/07/03 06:23:49;;;;;;;9.88;2.70;;;26.70;78.50;;;;;;5088450;28;20201;-75
2021/07/03 06:26:16;;;;;;;6.65;2.38;;;26.50;78.60;;;;;;5068815;28;20196;-77
2021/07/03 06:28:42;;;;;;;10.88;2.85;;;26.60;79.10;;;;;;5104802;28;20215;-74
2021/07/03 06:31:08;;;;;;;10.50;2.72;;;26.80;76.90;;;;;;5100541;28;20193;-76
2021/07/03 06:33:34;;;;;;;8.52;2.55;;;26.80;77.00;;;;;;5085387;28;20295;-76
2021/07/03 06:36:01;;;;;;;7.88;2.22;;;26.90;77.60;;;;;;5069048;28;20263;-74
2021/07/03 06:38:27;;;;;;;7.63;2.47;;;26.70;78.80;;;;;;5084045;28;20178;-74
2021/07/03 06:40:53;;;;;;;8.57;2.50;;;26.90;77.40;;;;;;5088091;28;21070;-75
2021/07/03 06:43:20;;;;;;;8.75;2.30;;;26.90;78.30;;;;;;5070296;28;20182;-77
2021/07/03 06:45:46;;;;;;;7.80;2.53;;;27.00;77.40;;;;;;5084359;28;20186;-74
2021/07/03 06:48:12;;;;;;;7.00;2.33;;;27.20;76.20;;;;;;5099060;28;20315;-77
2021/07/03 06:50:39;;;;;;;7.57;2.40;;;27.30;75.50;;;;;;5078418;28;20210;-79
2021/07/03 06:53:05;;;;;;;11.45;2.72;;;27.40;76.30;;;;;;5090874;28;21050;-75
2021/07/03 06:55:32;;;;;;;5.07;2.22;;;27.30;77.10;;;;;;5102048;27;20174;-74
2021/07/03 06:57:58;;;;;;;9.48;2.63;;;27.40;76.00;;;;;;5089659;28;20190;-75
2021/07/03 07:00:25;;;;;;;6.95;2.38;;;27.30;77.00;;;;;;5103955;27;20334;-78
2021/07/03 07:02:51;;;;;;;7.43;2.55;;;27.50;77.10;;;;;;5104272;27;20228;-77
2021/07/03 07:05:18;;;;;;;12.70;3.08;;;27.40;77.90;;;;;;5073739;28;20186;-76
2021/07/03 07:07:44;;;;;;;7.80;2.22;;;27.50;77.90;;;;;;5088727;28;21020;-78
2021/07/03 07:10:11;;;;;;;12.73;2.88;;;27.70;74.80;;;;;;5085822;28;20256;-77
2021/07/03 07:12:37;;;;;;;6.25;2.33;;;27.70;76.50;;;;;;5093722;28;20202;-77
2021/07/03 07:15:05;;;;;;;8.05;2.20;;;27.70;76.50;;;;;;5072296;28;20182;-75
2021/07/03 07:17:31;;;;;;;9.10;2.17;;;27.60;76.10;;;;;;5090064;28;20304;-78
2021/07/03 07:19:58;;;;;;;12.38;2.20;;;27.90;75.80;;;;;;5082021;28;20228;-74
2021/07/03 07:22:26;;;;;;;8.40;2.60;;;27.90;75.60;;;;;;5090788;28;20849;-79
2021/07/03 07:24:52;;;;;;;11.95;2.72;;;28.20;76.70;;;;;;5091942;28;20207;-78
2021/07/03 07:27:18;;;;;;;4.20;1.98;;;28.10;76.10;;;;;;5091751;28;20220;-76
2021/07/03 07:29:45;;;;;;;8.90;2.20;;;28.10;73.90;;;;;;5106644;27;20186;-76
2021/07/03 07:32:11;;;;;;;6.78;2.17;;;28.40;71.70;;;;;;5091619;28;20845;-75
2021/07/03 07:34:37;;;;;;;6.20;2.30;;;28.40;71.10;;;;;;5108474;27;20621;-73
2021/07/03 07:37:05;;;;;;;14.00;3.03;;;28.30;72.80;;;;;;5089391;28;20272;-76
2021/07/03 07:39:32;;;;;;;7.43;2.45;;;28.50;73.30;;;;;;5087719;28;20186;-77
2021/07/03 07:41:59;;;;;;;7.18;2.40;;;28.40;74.00;;;;;;5092843;28;20175;-77
2021/07/03 07:44:25;;;;;;;7.88;2.45;;;28.60;73.90;;;;;;5090531;28;20187;-75
2021/07/03 07:46:51;;;;;;;8.93;2.38;;;28.50;74.40;;;;;;5078320;28;20213;-78
2021/07/03 07:49:18;;;;;;;8.45;2.25;;;28.50;75.90;;;;;;5084391;28;20222;-76
2021/07/03 07:51:44;;;;;;;8.52;2.00;;;28.60;73.70;;;;;;5083955;28;20228;-76
2021/07/03 07:54:10;;;;;;;3.67;1.73;;;28.40;74.50;;;;;;5108727;27;20193;-75
2021/07/03 07:56:42;;;;;;;9.55;1.77;;;28.30;74.30;;;;;;5088495;28;20554;-75
2021/07/03 07:59:11;;;;;;;7.85;2.20;;;28.70;73.70;;;;;;5087064;28;20272;-77
2021/07/03 08:01:39;;;;;;;8.25;2.22;;;28.80;74.20;;;;;;5093062;28;20184;-77
2021/07/03 08:04:06;;;;;;;5.05;1.95;;;28.70;72.70;;;;;;5073937;28;20271;-77
2021/07/03 08:06:36;;;;;;;8.07;2.08;;;28.70;73.30;;;;;;5092882;28;20273;-76
2021/07/03 08:09:08;;;;;;;11.70;2.10;;;29.00;69.50;;;;;;5088527;28;20185;-76
2021/07/03 08:11:35;;;;;;;5.90;1.80;;;29.20;67.70;;;;;;5105661;27;20259;-75
2021/07/03 08:14:02;;;;;;;9.88;1.75;;;29.20;68.70;;;;;;5086227;28;20197;-77
2021/07/03 08:16:28;;;;;;;9.65;1.80;;;29.40;69.80;;;;;;5089822;28;20184;-75
2021/07/03 08:18:54;;;;;;;8.65;2.30;;;29.60;67.40;;;;;;5089963;28;20214;-77
2021/07/03 08:21:21;;;;;;;8.55;1.80;;;29.50;69.20;;;;;;5079615;28;20187;-75
2021/07/03 08:23:47;;;;;;;8.98;2.47;;;29.40;69.50;;;;;;5085641;28;20266;-77
2021/07/03 08:26:14;;;;;;;5.30;1.88;;;29.30;71.30;;;;;;5105772;27;20173;-77
2021/07/03 08:28:41;;;;;;;10.13;2.22;;;29.60;71.40;;;;;;5089557;28;20187;-79
2021/07/03 08:31:07;;;;;;;6.15;1.77;;;29.60;70.00;;;;;;5085005;28;20186;-78
2021/07/03 08:33:33;;;;;;;9.15;2.13;;;29.90;69.00;;;;;;5090144;28;20691;-76
2021/07/03 08:36:00;;;;;;;8.25;2.10;;;29.90;70.30;;;;;;5077834;28;20549;-79
2021/07/03 08:38:26;;;;;;;9.75;2.33;;;29.80;71.00;;;;;;5109709;27;20308;-77
2021/07/03 08:40:55;;;;;;;11.00;2.28;;;29.60;71.60;;;;;;5088792;28;20635;-76
2021/07/03 08:43:22;;;;;;;6.65;2.40;;;29.60;72.30;;;;;;5101407;27;20190;-75
2021/07/03 08:45:55;;;;;;;9.35;2.30;;;29.80;71.70;;;;;;5074985;28;20535;-73
2021/07/03 08:48:22;;;;;;;7.20;2.38;;;29.90;72.40;;;;;;5091596;28;20259;-73
2021/07/03 08:50:55;;;;;;;14.13;2.72;;;30.00;73.40;;;;;;5086884;28;20186;-75
2021/07/03 08:53:23;;;;;;;9.85;2.10;;;29.90;71.30;;;;;;5063359;28;20300;-74
2021/07/03 08:55:50;;;;;;;6.47;2.22;;;29.90;70.50;;;;;;5070991;28;20292;-73
2021/07/03 08:58:16;;;;;;;10.98;2.60;;;29.80;72.80;;;;;;5102316;27;20261;-71
2021/07/03 09:00:47;;;;;;;11.80;2.50;;;29.90;75.10;;;;;;5088018;28;20197;-76
2021/07/03 09:03:20;;;;;;;7.28;2.58;;;30.20;72.80;;;;;;5087330;28;20904;-72
2021/07/03 09:05:55;;;;;;;7.95;2.00;;;30.10;70.20;;;;;;5083064;28;20191;-74
2021/07/03 09:08:25;;;;;;;5.43;1.92;;;30.10;70.30;;;;;;5106808;27;20236;-73
2021/07/03 09:11:07;;;;;;;9.65;2.60;;;30.40;71.60;;;;;;5090378;28;20194;-73
2021/07/03 09:13:38;;;;;;;10.45;2.80;;;30.30;73.40;;;;;;5091732;28;20292;-73
2021/07/03 09:16:05;;;;;;;14.18;3.08;;;30.50;71.90;;;;;;5085529;28;20182;-72
2021/07/03 09:18:32;;;;;;;10.27;2.83;;;30.50;73.70;;;;;;5105506;27;20235;-73
2021/07/03 09:21:04;;;;;;;12.52;2.78;;;30.40;72.20;;;;;;5069480;28;20303;-71
2021/07/03 09:23:34;;;;;;;9.32;2.72;;;30.40;73.00;;;;;;5097493;27;20190;-74
2021/07/03 09:26:12;;;;;;;9.07;2.70;;;30.50;73.90;;;;;;5120188;27;20281;-73
2021/07/03 09:28:45;;;;;;;14.07;2.75;;;30.50;69.90;;;;;;5086578;28;20244;-71
2021/07/03 09:31:15;;;;;;;12.48;2.90;;;30.50;74.00;;;;;;5104865;27;20185;-72
2021/07/03 09:33:54;;;;;;;12.23;2.67;;;30.40;73.50;;;;;;5085619;28;20265;-75
2021/07/03 09:36:31;;;;;;;7.22;2.58;;;30.30;73.00;;;;;;5086583;28;20219;-74
2021/07/03 09:39:01;;;;;;;10.75;2.47;;;30.40;72.70;;;;;;5087808;28;20197;-72
2021/07/03 09:41:32;;;;;;;14.45;2.90;;;30.50;73.70;;;;;;5104039;27;20554;-72
2021/07/03 09:44:07;;;;;;;12.30;3.33;;;30.50;76.50;;;;;;5087357;28;20832;-76
2021/07/03 09:46:42;;;;;;;14.38;3.10;;;30.60;76.40;;;;;;5090460;28;20216;-75
2021/07/03 09:49:15;;;;;;;18.52;3.33;;;30.80;77.40;;;;;;5087366;28;20224;-72
2021/07/03 09:51:48;;;;;;;11.10;2.83;;;30.80;76.20;;;;;;5103437;27;20195;-72
2021/07/03 09:54:18;;;;;;;9.82;3.20;;;30.80;76.10;;;;;;5075632;28;20190;-72
2021/07/03 09:56:46;;;;;;;9.82;3.03;;;30.90;77.60;;;;;;5085941;28;20186;-71
2021/07/03 09:59:13;;;;;;;15.02;3.20;;;31.00;76.70;;;;;;5070651;28;20201;-73
2021/07/03 10:01:43;;;;;;;10.82;2.90;;;31.10;77.20;;;;;;5089059;28;20259;-70
2021/07/03 10:04:12;;;;;;;9.25;2.53;;;31.10;74.60;;;;;;5103038;27;20186;-71
2021/07/03 10:07:17;;;;;;;13.90;2.90;;;31.00;72.50;;;;;;5091313;28;20458;-74
2021/07/03 10:09:55;;;;;;;7.93;2.92;;;31.00;74.10;;;;;;5069949;28;20181;-73
2021/07/03 10:12:44;;;;;;;11.30;2.60;;;31.20;75.80;;;;;;5080795;28;20297;-72
2021/07/03 10:15:12;;;;;;;10.38;3.28;;;31.50;73.70;;;;;;5102885;27;20186;-72
2021/07/03 10:17:39;;;;;;;11.70;2.95;;;31.40;74.70;;;;;;5109312;27;20180;-71
2021/07/03 10:20:15;;;;;;;14.68;3.00;;;31.40;72.60;;;;;;5087733;28;20185;-74
2021/07/03 10:22:55;;;;;;;12.57;2.55;;;31.50;70.90;;;;;;5086896;28;20194;-71
2021/07/03 10:25:39;;;;;;;13.43;3.28;;;31.60;68.00;;;;;;5077037;28;20198;-71
2021/07/03 10:28:11;;;;;;;11.63;2.75;;;31.60;69.10;;;;;;5087030;28;20213;-73
2021/07/03 10:30:42;;;;;;;13.88;3.33;;;31.60;68.10;;;;;;5084432;28;20194;-72
2021/07/03 10:33:21;;;;;;;10.05;2.72;;;31.70;70.10;;;;;;5089057;28;20210;-76
2021/07/03 10:35:48;;;;;;;11.90;2.72;;;31.60;70.90;;;;;;5087806;28;20205;-72
2021/07/03 10:38:20;;;;;;;18.90;3.42;;;31.90;72.20;;;;;;5100669;28;20243;-75
2021/07/03 10:40:48;;;;;;;17.45;3.17;;;31.70;69.70;;;;;;5102504;28;20194;-76
2021/07/03 10:43:15;;;;;;;14.57;2.92;;;31.80;69.30;;;;;;5080380;28;20205;-73
2021/07/03 10:46:09;;;;;;;10.18;2.75;;;31.90;68.90;;;;;;5079842;28;20220;-71
2021/07/03 10:48:35;;;;;;;9.82;2.38;;;31.90;67.80;;;;;;5078636;28;20221;-73
2021/07/03 10:51:13;;;;;;;4.47;2.08;;;32.00;63.70;;;;;;5098866;28;20278;-74
2021/07/03 10:53:41;;;;;;;10.02;2.70;;;31.70;62.10;;;;;;5101824;28;20227;-74
2021/07/03 10:56:16;;;;;;;7.28;2.97;;;31.40;65.00;;;;;;5094660;28;20277;-72
2021/07/03 10:58:43;;;;;;;19.17;2.72;;;31.90;66.30;;;;;;5081833;28;20943;-74
2021/07/03 11:01:14;;;;;;;8.77;2.42;;;31.90;62.70;;;;;;5085570;28;20185;-75
2021/07/03 11:03:45;;;;;;;9.98;2.13;;;31.70;65.90;;;;;;5076711;28;20276;-73
2021/07/03 11:06:22;;;;;;;9.30;2.38;;;31.90;62.50;;;;;;5100149;28;20198;-73
2021/07/03 11:08:50;;;;;;;13.27;2.92;;;31.70;61.40;;;;;;5102771;28;20182;-71
2021/07/03 11:11:17;;;;;;;8.25;2.30;;;31.90;63.30;;;;;;5106799;28;20174;-75
2021/07/03 11:13:55;;;;;;;11.82;2.85;;;31.90;63.90;;;;;;5087893;28;20328;-76
2021/07/03 11:16:22;;;;;;;12.20;2.72;;;31.90;65.30;;;;;;5083759;28;20195;-76
2021/07/03 11:18:49;;;;;;;9.98;2.50;;;31.60;62.70;;;;;;5080904;28;20621;-75
2021/07/03 11:21:16;;;;;;;9.77;2.80;;;31.70;64.60;;;;;;5088104;28;20174;-76
2021/07/03 11:23:43;;;;;;;8.57;2.35;;;31.90;65.80;;;;;;5085554;28;20194;-75
2021/07/03 11:26:17;;;;;;;7.75;2.55;;;31.70;67.40;;;;;;5076499;28;20693;-74
2021/07/03 11:28:58;;;;;;;8.80;2.65;;;31.60;69.30;;;;;;5060967;28;20661;-79
2021/07/03 11:31:25;;;;;;;14.02;3.22;;;31.50;68.30;;;;;;5073620;28;20224;-76
2021/07/03 11:33:57;;;;;;;15.65;3.58;;;31.50;71.10;;;;;;5100330;28;20777;-77
2021/07/03 11:36:24;;;;;;;15.75;3.40;;;31.50;73.10;;;;;;5082171;28;20205;-78
2021/07/03 11:38:59;;;;;;;15.82;3.20;;;31.40;71.70;;;;;;5080229;28;20265;-76
2021/07/03 11:41:29;;;;;;;13.63;3.20;;;31.60;74.00;;;;;;5089278;28;20202;-78
2021/07/03 11:44:04;;;;;;;13.00;3.42;;;31.50;74.70;;;;;;5105625;27;20281;-76
2021/07/03 11:46:32;;;;;;;16.25;4.22;;;31.30;75.70;;;;;;5087550;28;20197;-75
2021/07/03 11:48:58;;;;;;;15.48;4.00;;;31.40;77.50;;;;;;5122512;27;20267;-75
2021/07/03 11:51:27;;;;;;;10.15;3.42;;;31.40;77.80;;;;;;5077016;28;20186;-75
2021/07/03 11:53:54;;;;;;;15.30;3.33;;;31.20;75.70;;;;;;5109415;27;20266;-75
2021/07/03 11:56:23;;;;;;;14.70;3.58;;;31.20;76.20;;;;;;5089334;28;20208;-76
2021/07/03 11:58:50;;;;;;;11.70;3.28;;;31.50;76.10;;;;;;5095526;27;20546;-73
2021/07/03 12:01:20;;;;;;;16.80;3.42;;;31.40;72.80;;;;;;5109091;27;20206;-75
2021/07/03 12:03:49;;;;;;;12.30;3.33;;;31.50;79.00;;;;;;5106837;27;20187;-75
2021/07/03 12:06:33;;;;;;;13.23;3.42;;;31.40;79.10;;;;;;5124177;27;20770;-75
2021/07/03 12:09:10;;;;;;;14.65;3.33;;;31.10;77.30;;;;;;5102863;27;20190;-74
2021/07/03 12:11:38;;;;;;;14.65;3.55;;;31.10;78.90;;;;;;5092478;28;20205;-74
2021/07/03 12:14:13;;;;;;;14.13;3.58;;;31.30;73.50;;;;;;5086412;28;20213;-74
2021/07/03 12:16:39;;;;;;;11.38;3.80;;;31.50;75.30;;;;;;5086007;28;20177;-74
2021/07/03 12:19:06;;;;;;;14.07;3.47;;;31.40;76.80;;;;;;5095320;27;20547;-75
2021/07/03 12:21:34;;;;;;;14.43;3.65;;;31.30;74.30;;;;;;5103722;27;21427;-75
2021/07/03 12:24:10;;;;;;;17.48;4.00;;;31.30;75.10;;;;;;5075580;28;20189;-74
2021/07/03 12:26:43;;;;;;;16.38;4.03;;;31.20;76.20;;;;;;5102202;27;20192;-74
2021/07/03 12:29:24;;;;;;;16.20;4.20;;;31.30;75.60;;;;;;5064100;28;20199;-73
2021/07/03 12:31:51;;;;;;;11.77;3.67;;;31.00;74.80;;;;;;5065614;28;20211;-75
2021/07/03 12:34:24;;;;;;;8.82;3.67;;;31.20;73.00;;;;;;5107654;27;20668;-75
2021/07/03 12:37:02;;;;;;;17.45;3.85;;;31.40;74.00;;;;;;5088008;28;20194;-76
2021/07/03 12:39:30;;;;;;;9.93;3.30;;;31.50;72.70;;;;;;5081333;28;20181;-76
2021/07/03 12:42:12;;;;;;;12.63;4.15;;;31.50;68.40;;;;;;5085524;28;20190;-75
2021/07/03 12:45:05;;;;;;;13.85;3.97;;;31.30;75.00;;;;;;5090139;28;20934;-75
2021/07/03 12:47:31;;;;;;;19.00;3.63;;;31.20;75.00;;;;;;5073590;28;20829;-75
2021/07/03 12:50:04;;;;;;;14.68;3.75;;;31.60;72.40;;;;;;5081627;28;20202;-75